Time;durP1;ratioP1;P1;durP2;ratioP2;P2;SDS_P1;SDS_P2;PMS_P1;PMS_P2;Temp;Humidity;BMP_temperature;BMP_pressure;BME280_temperature;BME280_humidity;BME280_pressure;Samples;Min_cycle;Max_cycle;Signal;HPM_P1;HPM_P2
2023/12/23 00:04:08;;;;;;;8.25;2.33;;;;;;;5.13;100.00;100724.44;10420619;28;20043;-78
2023/12/23 00:09:08;;;;;;;9.85;4.50;;;;;;;5.13;100.00;100721.84;10478646;28;20058;-78
2023/12/23 00:14:09;;;;;;;6.22;2.35;;;;;;;5.10;100.00;100718.13;10493508;28;20144;-78
2023/12/23 00:19:09;;;;;;;6.60;2.08;;;;;;;5.04;100.00;100712.53;10431922;28;20128;-78
2023/12/23 00:24:10;;;;;;;10.07;1.98;;;;;;;5.09;100.00;100721.53;10423873;28;20128;-79
2023/12/23 00:29:10;;;;;;;6.82;3.03;;;;;;;5.06;100.00;100717.03;10428203;28;21569;-78
2023/12/23 00:34:11;;;;;;;5.30;2.00;;;;;;;5.03;100.00;100705.53;10441379;28;20183;-79
2023/12/23 00:39:12;;;;;;;3.92;1.63;;;;;;;5.02;100.00;100699.47;10440009;28;20885;-79
2023/12/23 00:44:13;;;;;;;9.67;2.33;;;;;;;5.00;100.00;100695.88;10440187;28;20115;-80
2023/12/23 00:49:13;;;;;;;9.45;3.03;;;;;;;5.00;100.00;100695.88;10437986;28;20439;-79
2023/12/23 00:54:14;;;;;;;9.10;2.55;;;;;;;4.98;100.00;100685.38;10481682;28;20066;-80
2023/12/23 00:59:14;;;;;;;14.55;4.50;;;;;;;4.97;100.00;100682.69;10513315;28;20131;-80
2023/12/23 01:04:15;;;;;;;7.85;1.80;;;;;;;5.03;100.00;100688.31;10506633;28;21364;-79
2023/12/23 01:09:15;;;;;;;9.60;3.22;;;;;;;5.04;100.00;100673.63;10500118;28;20044;-79
2023/12/23 01:14:16;;;;;;;5.78;2.03;;;;;;;4.99;100.00;100679.41;10432980;28;20081;-79
2023/12/23 01:19:16;;;;;;;8.50;3.05;;;;;;;4.97;100.00;100675.81;10440482;28;20090;-79
2023/12/23 01:24:16;;;;;;;14.65;4.28;;;;;;;5.11;100.00;100675.81;10430944;28;20190;-79
2023/12/23 01:29:17;;;;;;;12.10;3.97;;;;;;;5.37;100.00;100676.66;10420360;28;20068;-79
2023/12/23 01:34:17;;;;;;;10.15;4.22;;;;;;;5.59;100.00;100677.25;10436725;28;20135;-79
2023/12/23 01:39:18;;;;;;;11.18;5.75;;;;;;;5.92;100.00;100666.34;10421697;28;20152;-80
2023/12/23 01:44:18;;;;;;;17.20;7.55;;;;;;;6.17;100.00;100662.72;10412704;28;20452;-79
2023/12/23 01:49:20;;;;;;;31.63;5.57;;;;;;;6.33;100.00;100664.53;10444512;28;20118;-79
2023/12/23 01:54:21;;;;;;;23.33;6.00;;;;;;;6.48;100.00;100659.41;10456187;28;20150;-79
2023/12/23 01:59:22;;;;;;;10.53;5.77;;;;;;;6.61;100.00;100642.81;10443329;28;20041;-80
2023/12/23 02:04:22;;;;;;;22.15;6.63;;;;;;;6.71;100.00;100639.06;10478783;28;20119;-79
2023/12/23 02:09:23;;;;;;;12.15;5.32;;;;;;;6.81;100.00;100637.91;10491305;28;20060;-78
2023/12/23 02:14:31;;;;;;;13.57;4.72;;;;;;;6.89;100.00;100636.66;10486496;28;20115;-78
2023/12/23 02:19:32;;;;;;;8.98;4.22;;;;;;;6.92;100.00;100609.94;10479395;28;20123;-78
2023/12/23 02:24:32;;;;;;;9.98;4.75;;;;;;;6.87;100.00;100618.38;10480417;28;20388;-79
2023/12/23 02:29:33;;;;;;;16.45;6.47;;;;;;;6.89;100.00;100595.03;10425071;28;20366;-79
2023/12/23 02:34:33;;;;;;;18.67;6.10;;;;;;;6.93;100.00;100575.31;10445110;28;20041;-77
2023/12/23 02:39:34;;;;;;;12.63;5.25;;;;;;;6.93;100.00;100581.38;10437029;28;20555;-78
2023/12/23 02:44:34;;;;;;;18.83;5.53;;;;;;;6.99;100.00;100579.13;10499098;28;20119;-78
2023/12/23 02:49:35;;;;;;;14.20;4.50;;;;;;;7.00;100.00;100583.53;10468258;28;20136;-79
2023/12/23 02:54:35;;;;;;;9.38;3.45;;;;;;;7.01;100.00;100561.03;10426397;28;20149;-78
2023/12/23 02:59:36;;;;;;;12.18;6.75;;;;;;;7.05;100.00;100556.06;10461246;28;20127;-79
2023/12/23 03:04:36;;;;;;;8.45;4.32;;;;;;;7.05;100.00;100549.97;10493224;28;20123;-78
2023/12/23 03:09:37;;;;;;;12.65;6.28;;;;;;;7.00;100.00;100531.50;10502304;28;20439;-77
2023/12/23 03:14:37;;;;;;;15.45;6.95;;;;;;;6.98;100.00;100545.25;10490510;28;20037;-78
2023/12/23 03:19:42;;;;;;;12.00;5.10;;;;;;;6.94;100.00;100541.53;10473908;28;20036;-78
2023/12/23 03:24:43;;;;;;;9.55;5.25;;;;;;;6.93;100.00;100529.34;10488588;28;20055;-77
2023/12/23 03:29:43;;;;;;;12.27;6.75;;;;;;;6.88;100.00;100525.59;10439918;28;20055;-77
2023/12/23 03:34:44;;;;;;;15.23;7.25;;;;;;;6.84;100.00;100528.81;10421335;28;20403;-77
2023/12/23 03:39:45;;;;;;;21.50;7.30;;;;;;;6.78;100.00;100521.59;10437238;28;20051;-77
2023/12/23 03:44:45;;;;;;;13.50;6.20;;;;;;;6.75;100.00;100524.88;10419571;28;20049;-77
2023/12/23 03:49:46;;;;;;;10.00;5.18;;;;;;;6.72;100.00;100532.50;10445802;28;20047;-77
2023/12/23 03:54:46;;;;;;;14.95;5.90;;;;;;;6.72;100.00;100523.84;10417634;28;20037;-77
2023/12/23 03:59:47;;;;;;;16.38;8.75;;;;;;;6.73;100.00;100516.09;10421230;28;20603;-77
2023/12/23 04:04:47;;;;;;;19.35;6.38;;;;;;;6.72;100.00;100513.44;10418063;28;20062;-78
2023/12/23 04:09:48;;;;;;;16.65;6.80;;;;;;;6.72;100.00;100500.41;10417994;28;20105;-78
2023/12/23 04:14:49;;;;;;;13.27;6.07;;;;;;;6.77;100.00;100496.38;10414097;28;20779;-78
2023/12/23 04:19:50;;;;;;;10.32;6.10;;;;;;;6.79;100.00;100492.16;10416152;28;20044;-79
2023/12/23 04:24:50;;;;;;;16.58;7.25;;;;;;;6.87;100.00;100469.16;10419835;28;20056;-76
2023/12/23 04:29:51;;;;;;;17.85;6.63;;;;;;;6.88;100.00;100455.34;10412468;28;20234;-75
2023/12/23 04:34:54;;;;;;;15.77;7.05;;;;;;;6.93;100.00;100445.22;10414350;28;20054;-77
2023/12/23 04:39:54;;;;;;;17.70;6.53;;;;;;;7.00;100.00;100413.53;10391177;28;20048;-76
2023/12/23 04:44:55;;;;;;;9.63;6.78;;;;;;;7.01;100.00;100410.97;10375224;28;20049;-76
2023/12/23 04:49:55;;;;;;;14.45;6.75;;;;;;;6.94;100.00;100406.25;10374584;28;20799;-77
2023/12/23 04:54:58;;;;;;;13.48;6.55;;;;;;;6.96;100.00;100382.94;10399431;28;20041;-77
2023/12/23 04:59:58;;;;;;;8.23;5.45;;;;;;;7.00;100.00;100392.69;10405831;28;20531;-77
2023/12/23 05:04:59;;;;;;;9.93;4.82;;;;;;;6.99;100.00;100383.97;10399320;28;20122;-77
2023/12/23 05:09:59;;;;;;;8.43;4.50;;;;;;;7.04;100.00;100385.13;10419295;28;20055;-77
2023/12/23 05:15:00;;;;;;;11.10;5.53;;;;;;;7.04;100.00;100359.09;10427758;28;21934;-77
2023/12/23 05:20:01;;;;;;;12.98;6.28;;;;;;;7.03;100.00;100348.63;10419173;27;20391;-79
2023/12/23 05:25:02;;;;;;;12.27;5.57;;;;;;;6.99;100.00;100360.56;10444196;27;20841;-78
2023/12/23 05:30:03;;;;;;;13.80;6.33;;;;;;;6.99;100.00;100373.56;10435354;27;20041;-78
2023/12/23 05:35:04;;;;;;;9.40;5.57;;;;;;;7.00;100.00;100367.56;10425969;27;20141;-79
2023/12/23 05:40:05;;;;;;;9.60;6.50;;;;;;;7.01;100.00;100369.34;10428894;28;20040;-78
2023/12/23 05:45:06;;;;;;;9.43;5.13;;;;;;;7.05;100.00;100368.69;10398332;28;20145;-78
2023/12/23 05:50:08;;;;;;;10.35;5.72;;;;;;;7.07;100.00;100367.88;10391139;28;21233;-78
2023/12/23 05:55:08;;;;;;;9.23;4.20;;;;;;;7.12;100.00;100364.75;10420106;27;20373;-76
2023/12/23 06:00:09;;;;;;;8.02;5.07;;;;;;;7.14;100.00;100367.41;10430061;28;20045;-77
2023/12/23 06:05:10;;;;;;;9.93;5.10;;;;;;;7.23;100.00;100362.69;10433755;28;20400;-77
2023/12/23 06:10:10;;;;;;;7.03;4.25;;;;;;;7.29;100.00;100376.03;10434919;27;20052;-77
2023/12/23 06:15:14;;;;;;;12.02;5.93;;;;;;;7.35;100.00;100370.28;10439002;28;20060;-78
2023/12/23 06:20:14;;;;;;;5.63;3.33;;;;;;;7.40;100.00;100357.47;10435523;27;20407;-78
2023/12/23 06:25:15;;;;;;;10.93;4.43;;;;;;;7.46;100.00;100358.72;10443245;27;20043;-78
2023/12/23 06:30:15;;;;;;;8.18;4.72;;;;;;;7.45;100.00;100343.91;10420130;28;20137;-79
2023/12/23 06:35:17;;;;;;;8.00;3.90;;;;;;;7.37;100.00;100352.09;10433703;28;20051;-77
2023/12/23 06:40:18;;;;;;;11.32;4.13;;;;;;;7.36;100.00;100351.22;10440984;28;20049;-79
2023/12/23 06:45:18;;;;;;;8.15;3.10;;;;;;;7.34;100.00;100358.94;10513158;28;20123;-80
2023/12/23 06:50:19;;;;;;;5.70;3.80;;;;;;;7.40;100.00;100381.81;10510475;28;20172;-78
2023/12/23 06:55:19;;;;;;;11.30;4.93;;;;;;;7.45;100.00;100369.03;10512420;28;20070;-79
2023/12/23 07:00:20;;;;;;;18.92;5.68;;;;;;;7.42;100.00;100359.38;10512144;28;20135;-78
2023/12/23 07:05:21;;;;;;;14.82;5.45;;;;;;;7.48;100.00;100361.38;10503311;28;20499;-78
2023/12/23 07:10:21;;;;;;;7.80;4.72;;;;;;;7.44;100.00;100362.03;10501601;28;20033;-78
2023/12/23 07:15:22;;;;;;;6.80;4.00;;;;;;;7.43;100.00;100361.16;10509884;28;20556;-78
2023/12/23 07:20:22;;;;;;;13.88;3.97;;;;;;;7.44;100.00;100360.34;10540529;27;20123;-77
2023/12/23 07:25:23;;;;;;;9.20;4.60;;;;;;;7.44;100.00;100382.84;10508799;28;20132;-78
2023/12/23 07:30:24;;;;;;;10.88;4.95;;;;;;;7.42;100.00;100368.88;10505010;28;20134;-77
2023/12/23 07:35:25;;;;;;;13.80;6.35;;;;;;;7.40;100.00;100370.50;10508964;28;20127;-77
2023/12/23 07:40:25;;;;;;;7.17;3.87;;;;;;;7.45;100.00;100382.03;10482917;28;20110;-77
2023/12/23 07:45:26;;;;;;;12.43;5.03;;;;;;;7.54;100.00;100386.84;10489507;28;20170;-77
2023/12/23 07:50:26;;;;;;;6.78;3.72;;;;;;;7.63;100.00;100385.59;10499184;28;20551;-82
2023/12/23 07:55:27;;;;;;;5.82;3.97;;;;;;;7.72;100.00;100386.91;10484329;28;20222;-78
2023/12/23 08:00:28;;;;;;;7.50;3.53;;;;;;;7.71;100.00;100383.41;10503756;28;20040;-78
2023/12/23 08:05:31;;;;;;;11.05;4.97;;;;;;;7.75;100.00;100385.38;10502663;28;20564;-79
2023/12/23 08:10:32;;;;;;;4.90;2.15;;;;;;;7.84;100.00;100389.25;10488186;28;20047;-80
2023/12/23 08:15:32;;;;;;;7.35;2.83;;;;;;;7.86;100.00;100387.63;10493154;28;20118;-80
2023/12/23 08:20:33;;;;;;;6.85;3.70;;;;;;;7.90;100.00;100374.81;10503024;28;20040;-79
2023/12/23 08:25:34;;;;;;;7.97;3.70;;;;;;;7.94;100.00;100370.66;10494383;28;20433;-80
2023/12/23 08:30:34;;;;;;;8.40;3.80;;;;;;;7.98;100.00;100383.03;10507105;28;20086;-79
2023/12/23 08:35:35;;;;;;;7.93;2.65;;;;;;;8.01;100.00;100393.63;10498609;28;20127;-78
2023/12/23 08:40:35;;;;;;;5.03;2.55;;;;;;;8.01;100.00;100387.50;10511831;28;20220;-79
2023/12/23 08:45:36;;;;;;;5.82;2.58;;;;;;;7.98;100.00;100388.25;10495033;28;20097;-80
2023/12/23 08:50:36;;;;;;;10.85;2.50;;;;;;;8.04;100.00;100398.97;10514958;28;20040;-76
2023/12/23 08:55:37;;;;;;;9.00;2.95;;;;;;;8.14;100.00;100389.00;10495206;28;20127;-77
2023/12/23 09:00:37;;;;;;;4.30;2.70;;;;;;;8.13;100.00;100397.66;10506170;28;20054;-76
2023/12/23 09:05:38;;;;;;;9.07;2.20;;;;;;;8.20;100.00;100395.41;10506601;28;20043;-79
2023/12/23 09:10:38;;;;;;;8.48;2.40;;;;;;;8.18;100.00;100417.03;10498057;28;20048;-76
2023/12/23 09:15:39;;;;;;;5.43;1.63;;;;;;;8.19;100.00;100411.00;10505360;28;20592;-77
2023/12/23 09:20:42;;;;;;;6.85;3.05;;;;;;;8.19;100.00;100411.88;10500218;28;20042;-76
2023/12/23 09:25:43;;;;;;;6.05;3.60;;;;;;;8.28;100.00;100428.78;10497101;28;20058;-76
2023/12/23 09:30:44;;;;;;;12.33;3.00;;;;;;;8.25;100.00;100424.34;10496556;28;20063;-77
2023/12/23 09:35:44;;;;;;;6.13;2.60;;;;;;;8.12;100.00;100453.22;10497017;28;20551;-76
2023/12/23 09:40:45;;;;;;;7.18;2.42;;;;;;;7.84;100.00;100457.00;10509285;28;20151;-76
2023/12/23 09:45:45;;;;;;;6.13;2.55;;;;;;;7.61;100.00;100486.22;10498501;28;20049;-76
2023/12/23 09:50:46;;;;;;;7.32;2.80;;;;;;;7.45;100.00;100502.75;10507384;28;20122;-77
2023/12/23 09:55:46;;;;;;;13.38;2.78;;;;;;;7.40;100.00;100513.69;10502397;28;20530;-77
2023/12/23 10:00:47;;;;;;;5.07;3.10;;;;;;;7.30;100.00;100538.34;10507235;28;20054;-76
2023/12/23 10:05:49;;;;;;;5.43;2.30;;;;;;;7.25;100.00;100535.47;10505784;28;20052;-76
2023/12/23 10:10:49;;;;;;;9.35;4.28;;;;;;;7.23;100.00;100546.63;10510548;28;20052;-76
2023/12/23 10:15:50;;;;;;;5.88;2.63;;;;;;;7.19;100.00;100546.44;10506990;28;20048;-76
2023/12/23 10:20:50;;;;;;;5.07;2.33;;;;;;;7.18;100.00;100546.34;10514226;28;20490;-76
2023/12/23 10:25:51;;;;;;;5.82;4.15;;;;;;;7.25;100.00;100550.22;10493262;28;20131;-77
2023/12/23 10:30:52;;;;;;;4.37;1.60;;;;;;;7.35;100.00;100539.50;10521259;28;20044;-77
2023/12/23 10:35:53;;;;;;;4.10;1.73;;;;;;;7.51;100.00;100528.19;10502155;28;20131;-77
2023/12/23 10:41:11;;;;;;;6.13;3.08;;;;;;;7.71;100.00;100516.28;10496677;28;20121;-77
2023/12/23 10:46:12;;;;;;;2.38;1.17;;;;;;;7.85;100.00;100488.31;10489743;28;20036;-76
2023/12/23 10:51:12;;;;;;;5.82;1.33;;;;;;;7.99;100.00;100456.88;10486027;28;20037;-77
2023/12/23 10:56:13;;;;;;;2.40;1.45;;;;;;;8.11;100.00;100439.25;10485602;28;20149;-77
2023/12/23 11:01:14;;;;;;;2.38;1.33;;;;;;;8.25;100.00;100449.50;10485759;28;20484;-77
2023/12/23 11:06:14;;;;;;;2.70;1.17;;;;;;;8.31;100.00;100426.34;10486305;28;20042;-76
2023/12/23 11:11:15;;;;;;;2.22;1.08;;;;;;;8.43;100.00;100413.03;10484606;28;20462;-77
2023/12/23 11:16:17;;;;;;;1.27;0.70;;;;;;;8.62;100.00;100423.56;10489274;28;20174;-77
2023/12/23 11:21:17;;;;;;;;;;;;;;;8.78;100.00;100416.47;10510814;28;20043;-76
2023/12/23 11:26:42;;;;;;;2.63;1.23;;;;;;;8.85;100.00;100429.00;10492952;28;19927;-77
2023/12/23 11:31:43;;;;;;;5.68;1.92;;;;;;;8.80;100.00;100446.16;10510417;28;20040;-76
2023/12/23 11:36:44;;;;;;;2.13;0.98;;;;;;;8.85;100.00;100448.97;10494234;28;20066;-77
2023/12/23 11:41:46;;;;;;;4.25;1.95;;;;;;;8.82;100.00;100450.59;10484223;28;20047;-77
2023/12/23 11:46:46;;;;;;;2.50;1.10;;;;;;;8.78;100.00;100432.13;10486248;28;20116;-78
2023/12/23 11:51:47;;;;;;;6.22;2.08;;;;;;;8.79;100.00;100437.41;10502464;28;20044;-76
2023/12/23 11:56:47;;;;;;;3.85;1.63;;;;;;;8.88;100.00;100444.78;10499393;28;20036;-77
2023/12/23 12:01:48;;;;;;;8.40;1.20;;;;;;;8.88;100.00;100452.63;10501427;28;20128;-77
2023/12/23 12:06:48;;;;;;;2.15;1.83;;;;;;;9.01;100.00;100454.09;10507783;28;20567;-78
2023/12/23 12:11:49;;;;;;;2.22;0.93;;;;;;;9.05;100.00;100445.56;10482651;28;20045;-76
2023/12/23 12:16:49;;;;;;;3.20;0.88;;;;;;;9.10;100.00;100432.75;10504921;28;20082;-77
2023/12/23 12:21:50;;;;;;;18.88;2.38;;;;;;;9.14;100.00;100439.91;10500340;28;20492;-76
2023/12/23 12:26:52;;;;;;;8.82;3.47;;;;;;;9.18;100.00;100444.44;10501009;28;20606;-76
2023/12/23 12:31:54;;;;;;;2.90;1.30;;;;;;;9.19;100.00;100451.47;10475884;28;20039;-76
2023/12/23 12:36:54;;;;;;;1.30;0.53;;;;;;;9.25;100.00;100445.63;10498598;28;20033;-76
2023/12/23 12:41:55;;;;;;;3.15;1.52;;;;;;;9.26;100.00;100447.41;10469068;28;20036;-76
2023/12/23 12:46:55;;;;;;;2.65;0.85;;;;;;;9.19;100.00;100456.69;10502686;28;20124;-77
2023/12/23 12:51:56;;;;;;;10.25;2.08;;;;;;;9.17;100.00;100457.41;10478872;28;20036;-76
2023/12/23 12:56:56;;;;;;;2.90;1.25;;;;;;;9.18;100.00;100454.91;10498879;28;20041;-76
2023/12/23 13:01:57;;;;;;;3.42;2.42;;;;;;;9.17;100.00;100460.94;10503199;28;20135;-76
2023/12/23 13:06:58;;;;;;;7.10;1.65;;;;;;;9.12;100.00;100480.72;10506922;28;20124;-77
2023/12/23 13:11:59;;;;;;;4.18;1.20;;;;;;;9.03;100.00;100480.28;10499606;28;20048;-77
2023/12/23 13:16:59;;;;;;;5.07;2.00;;;;;;;9.00;100.00;100488.84;10479998;28;20082;-76
2023/12/23 13:22:00;;;;;;;23.27;2.35;;;;;;;8.94;100.00;100499.00;10502027;28;20932;-76
2023/12/23 13:27:00;;;;;;;6.05;2.40;;;;;;;8.87;100.00;100512.56;10498053;28;20060;-76
2023/12/23 13:32:01;;;;;;;2.90;1.45;;;;;;;8.82;100.00;100515.84;10501052;28;20398;-76
2023/12/23 13:37:01;;;;;;;6.53;3.20;;;;;;;8.74;100.00;100527.63;10498085;28;20076;-77
2023/12/23 13:42:02;;;;;;;5.78;1.83;;;;;;;8.67;100.00;100538.56;10517854;28;20088;-76
2023/12/23 13:47:04;;;;;;;6.03;2.40;;;;;;;8.56;100.00;100531.91;10505444;28;20048;-77
2023/12/23 13:52:04;;;;;;;2.20;1.40;;;;;;;8.56;100.00;100525.00;10503623;28;20055;-76
2023/12/23 13:57:05;;;;;;;3.50;1.30;;;;;;;8.65;100.00;100545.41;10490377;28;20514;-76
2023/12/23 14:02:07;;;;;;;13.82;2.78;;;;;;;8.71;100.00;100539.63;10507363;28;20199;-77
2023/12/23 14:07:08;;;;;;;2.50;2.30;;;;;;;8.73;100.00;100551.91;10501305;28;20049;-77
2023/12/23 14:12:08;;;;;;;1.80;1.02;;;;;;;8.70;100.00;100553.50;10508922;28;20480;-77
2023/12/23 14:17:09;;;;;;;2.55;1.65;;;;;;;8.62;100.00;100559.22;10500143;28;20040;-77
2023/12/23 14:22:09;;;;;;;1.50;0.75;;;;;;;8.56;100.00;100555.38;10498818;28;20086;-76
2023/12/23 14:27:10;;;;;;;2.25;0.70;;;;;;;8.50;100.00;100558.59;10511140;28;20024;-77
2023/12/23 14:32:10;;;;;;;3.08;1.60;;;;;;;8.49;100.00;100564.63;10507725;28;20139;-77
2023/12/23 14:37:11;;;;;;;6.97;1.25;;;;;;;8.50;100.00;100564.69;10513899;28;20144;-76
2023/12/23 14:42:11;;;;;;;5.32;1.45;;;;;;;8.50;100.00;100576.84;10504134;28;20054;-76
2023/12/23 14:47:13;;;;;;;2.28;1.00;;;;;;;8.44;100.00;100580.00;10487405;28;20102;-76
2023/12/23 14:52:13;;;;;;;2.47;0.93;;;;;;;8.40;100.00;100575.44;10506125;28;20039;-77
2023/12/23 14:57:14;;;;;;;2.35;1.00;;;;;;;8.35;100.00;100587.34;10509198;28;20072;-77
2023/12/23 15:02:16;;;;;;;3.38;2.03;;;;;;;8.33;100.00;100583.75;10495690;28;20090;-76
2023/12/23 15:07:16;;;;;;;3.35;1.58;;;;;;;8.32;100.00;100600.22;10501202;28;20047;-77
2023/12/23 15:12:18;;;;;;;2.55;0.95;;;;;;;8.19;100.00;100591.75;10508212;28;20044;-75
2023/12/23 15:17:18;;;;;;;4.03;1.97;;;;;;;8.12;100.00;100605.28;10502778;28;20496;-78
2023/12/23 15:22:19;;;;;;;5.45;1.63;;;;;;;8.08;100.00;100609.44;10504826;28;20127;-77
2023/12/23 15:27:19;;;;;;;5.10;1.38;;;;;;;8.08;100.00;100606.84;10502651;28;20131;-77
2023/12/23 15:32:20;;;;;;;1.85;1.20;;;;;;;8.09;100.00;100620.75;10507975;28;20125;-77
2023/12/23 15:37:20;;;;;;;10.07;3.30;;;;;;;8.06;100.00;100625.78;10511177;28;20051;-76
2023/12/23 15:42:21;;;;;;;1.42;1.00;;;;;;;8.00;100.00;100630.69;10499365;28;20960;-76
2023/12/23 15:47:21;;;;;;;1.63;0.77;;;;;;;7.93;100.00;100630.34;10510606;28;20116;-77
2023/12/23 15:52:22;;;;;;;2.38;1.25;;;;;;;7.93;100.00;100652.91;10503661;28;20579;-77
2023/12/23 15:57:24;;;;;;;3.35;1.90;;;;;;;7.87;100.00;100635.22;10499438;28;20563;-76
2023/12/23 16:02:24;;;;;;;2.75;1.73;;;;;;;7.72;100.00;100640.50;10505977;28;20036;-78
2023/12/23 16:07:26;;;;;;;2.03;1.17;;;;;;;7.70;100.00;100639.53;10509452;28;20040;-78
2023/12/23 16:12:27;;;;;;;10.20;1.73;;;;;;;7.84;100.00;100642.88;10501769;28;20055;-78
2023/12/23 16:17:27;;;;;;;6.80;3.40;;;;;;;7.99;100.00;100632.41;10477402;28;20456;-77
2023/12/23 16:22:31;;;;;;;5.22;3.33;;;;;;;8.09;100.00;100623.34;10485041;28;20112;-77
2023/12/23 16:27:33;;;;;;;6.38;2.67;;;;;;;8.14;100.00;100621.00;10479869;28;20496;-78
2023/12/23 16:32:33;;;;;;;4.97;3.00;;;;;;;8.19;100.00;100620.44;10498370;28;20396;-77
2023/12/23 16:37:34;;;;;;;3.92;2.53;;;;;;;8.30;100.00;100617.50;10477162;28;20045;-78
2023/12/23 16:42:36;;;;;;;12.02;2.72;;;;;;;8.36;100.00;100620.44;10451429;28;20044;-76
2023/12/23 16:47:36;;;;;;;5.38;3.15;;;;;;;8.37;100.00;100623.13;10449525;28;20040;-77
2023/12/23 16:52:37;;;;;;;5.13;3.65;;;;;;;8.44;100.00;100618.22;10437310;28;20486;-77
2023/12/23 16:57:38;;;;;;;3.85;2.45;;;;;;;8.47;100.00;100611.44;10436350;28;20163;-77
2023/12/23 17:02:38;;;;;;;6.13;3.70;;;;;;;8.51;100.00;100616.03;10440299;28;20127;-78
2023/12/23 17:07:39;;;;;;;3.95;2.55;;;;;;;8.61;100.00;100622.66;10444799;28;20069;-76
2023/12/23 17:12:39;;;;;;;5.20;2.47;;;;;;;8.67;100.00;100619.44;10460431;28;20039;-77
2023/12/23 17:17:40;;;;;;;5.20;2.33;;;;;;;8.72;100.00;100624.91;10455382;28;20063;-76
2023/12/23 17:22:41;;;;;;;7.80;3.30;;;;;;;8.74;100.00;100637.19;10436534;28;20392;-76
2023/12/23 17:27:41;;;;;;;4.20;2.35;;;;;;;8.70;100.00;100627.44;10464780;28;20128;-77
2023/12/23 17:32:42;;;;;;;7.68;3.65;;;;;;;8.74;100.00;100625.88;10454416;28;20180;-77
2023/12/23 17:37:42;;;;;;;5.68;2.40;;;;;;;8.76;100.00;100617.31;10439411;28;20552;-78
2023/12/23 17:42:44;;;;;;;9.23;2.42;;;;;;;8.76;100.00;100616.44;10459860;28;20443;-78
2023/12/23 17:47:44;;;;;;;9.50;4.90;;;;;;;8.75;100.00;100625.94;10440761;28;20037;-78
2023/12/23 17:52:45;;;;;;;9.80;3.75;;;;;;;8.74;100.00;100621.56;10470518;28;20119;-77
2023/12/23 17:57:46;;;;;;;5.93;2.13;;;;;;;8.81;100.00;100617.56;10514423;28;20132;-77
2023/12/23 18:02:46;;;;;;;2.53;1.33;;;;;;;8.81;100.00;100621.03;10473092;28;20561;-78
2023/12/23 18:07:47;;;;;;;5.38;1.90;;;;;;;8.84;100.00;100625.53;10511552;28;20043;-78
2023/12/23 18:12:47;;;;;;;4.65;2.75;;;;;;;8.81;100.00;100623.66;10524895;28;20060;-78
2023/12/23 18:17:49;;;;;;;6.70;2.30;;;;;;;8.82;100.00;100620.22;10467407;28;20072;-78
2023/12/23 18:22:49;;;;;;;6.07;1.83;;;;;;;8.82;100.00;100627.19;10430523;28;20049;-78
2023/12/23 18:27:51;;;;;;;11.15;5.50;;;;;;;8.80;100.00;100629.69;10468042;28;20143;-81
2023/12/23 18:32:55;;;;;;;5.50;2.15;;;;;;;8.87;100.00;100619.56;10502275;28;20507;-78
2023/12/23 18:37:55;;;;;;;5.85;1.63;;;;;;;8.88;100.00;100626.56;10481368;28;20044;-78
2023/12/23 18:42:58;;;;;;;8.52;4.25;;;;;;;8.82;100.00;100633.28;10518923;28;20131;-78
2023/12/23 18:47:59;;;;;;;6.72;3.15;;;;;;;8.88;100.00;100613.53;10490307;28;20127;-79
2023/12/23 18:52:59;;;;;;;8.00;3.63;;;;;;;8.85;100.00;100606.44;10500506;28;20033;-78
2023/12/23 18:58:01;;;;;;;4.13;1.88;;;;;;;8.80;100.00;100632.28;10502893;28;20044;-78
2023/12/23 19:03:03;;;;;;;7.05;4.72;;;;;;;8.80;100.00;100621.84;10471334;28;20484;-77
2023/12/23 19:08:06;;;;;;;4.10;1.92;;;;;;;8.76;100.00;100643.41;10484358;28;20116;-78
2023/12/23 19:13:06;;;;;;;;;;;;;;;8.76;100.00;100625.13;10482742;28;20037;-79
2023/12/23 19:18:06;;;;;;;3.37;2.07;;;;;;;8.75;100.00;100628.56;10512077;28;20275;-78
2023/12/23 19:23:08;;;;;;;5.40;2.75;;;;;;;8.74;100.00;100639.81;10508995;28;20834;-78
2023/12/23 19:28:09;;;;;;;6.93;3.47;;;;;;;8.72;100.00;100637.97;10507371;28;20094;-79
2023/12/23 19:33:09;;;;;;;7.53;2.03;;;;;;;8.70;100.00;100640.47;10505072;28;20526;-79
2023/12/23 19:38:10;;;;;;;4.95;2.42;;;;;;;8.72;100.00;100651.00;10480829;28;20052;-78
2023/12/23 19:43:10;;;;;;;6.47;2.05;;;;;;;8.72;100.00;100646.66;10496143;28;20070;-79
2023/12/23 19:48:12;;;;;;;6.60;1.98;;;;;;;8.67;100.00;100653.34;10501772;28;20044;-79
2023/12/23 19:53:13;;;;;;;3.42;1.85;;;;;;;8.63;100.00;100647.09;10483880;28;20043;-78
2023/12/23 19:58:13;;;;;;;6.05;1.70;;;;;;;8.67;100.00;100653.34;10505308;28;20135;-82
2023/12/23 20:03:14;;;;;;;5.47;2.35;;;;;;;8.65;100.00;100642.84;10508512;28;20555;-78
2023/12/23 20:08:14;;;;;;;3.85;2.15;;;;;;;8.59;100.00;100652.06;10495486;28;20040;-79
2023/12/23 20:13:15;;;;;;;3.47;1.63;;;;;;;8.55;100.00;100648.41;10487453;28;20051;-79
2023/12/23 20:18:15;;;;;;;7.00;2.35;;;;;;;8.53;100.00;100642.22;10503867;28;20127;-81
2023/12/23 20:23:16;;;;;;;11.73;2.47;;;;;;;8.45;100.00;100643.50;10499748;28;20172;-79
2023/12/23 20:28:17;;;;;;;4.28;2.15;;;;;;;8.46;100.00;100656.59;10459257;28;20039;-77
2023/12/23 20:33:17;;;;;;;5.13;2.58;;;;;;;8.39;100.00;100649.28;10499610;28;20060;-78
2023/12/23 20:38:22;;;;;;;9.48;3.15;;;;;;;8.32;100.00;100648.06;10512738;28;20131;-78
2023/12/23 20:43:22;;;;;;;5.70;2.50;;;;;;;8.21;100.00;100644.88;10500088;28;20032;-79
2023/12/23 20:48:23;;;;;;;5.10;2.42;;;;;;;8.06;100.00;100665.81;10503415;28;20119;-77
2023/12/23 20:53:24;;;;;;;5.87;2.50;;;;;;;7.90;100.00;100651.03;10497023;28;20036;-77
2023/12/23 20:58:25;;;;;;;7.45;2.58;;;;;;;7.77;100.00;100640.75;10471744;28;20481;-78
2023/12/23 21:03:25;;;;;;;5.30;1.63;;;;;;;7.64;100.00;100660.00;10439030;28;20072;-77
2023/12/23 21:08:26;;;;;;;3.83;2.08;;;;;;;7.56;100.00;100654.34;10438636;28;20055;-78
2023/12/23 21:13:26;;;;;;;4.30;2.17;;;;;;;7.54;100.00;100655.97;10440066;28;20607;-78
2023/12/23 21:18:27;;;;;;;8.13;1.80;;;;;;;7.54;100.00;100665.50;10406388;28;20124;-78
2023/12/23 21:23:27;;;;;;;4.43;2.47;;;;;;;7.59;100.00;100659.75;10439453;28;20119;-78
2023/12/23 21:28:28;;;;;;;3.35;1.60;;;;;;;7.62;100.00;100627.78;10506771;28;20123;-78
2023/12/23 21:33:28;;;;;;;4.70;1.40;;;;;;;7.64;100.00;100605.31;10506235;28;20387;-78
2023/12/23 21:38:29;;;;;;;6.75;1.92;;;;;;;7.72;100.00;100621.34;10494925;28;20124;-78
2023/12/23 21:43:29;;;;;;;6.45;2.10;;;;;;;7.75;100.00;100631.94;10485785;28;20115;-78
2023/12/23 21:48:29;;;;;;;5.50;2.67;;;;;;;7.76;100.00;100628.53;10469772;28;20055;-77
2023/12/23 21:53:30;;;;;;;2.95;1.52;;;;;;;7.84;100.00;100631.56;10429558;28;20117;-77
2023/12/23 21:58:31;;;;;;;10.27;3.38;;;;;;;7.90;100.00;100613.66;10415195;28;20055;-77
2023/12/23 22:03:31;;;;;;;9.50;2.83;;;;;;;7.85;100.00;100622.94;10458959;28;20051;-77
2023/12/23 22:08:32;;;;;;;6.40;2.15;;;;;;;7.94;100.00;100602.59;10465722;28;20407;-78
2023/12/23 22:13:32;;;;;;;7.75;2.58;;;;;;;8.06;100.00;100598.03;10484189;28;20131;-78
2023/12/23 22:18:33;;;;;;;5.30;2.42;;;;;;;8.12;100.00;100594.84;10470423;28;20052;-78
2023/12/23 22:23:33;;;;;;;10.82;3.13;;;;;;;8.10;100.00;100578.22;10506971;28;20083;-77
2023/12/23 22:28:34;;;;;;;5.72;2.80;;;;;;;8.19;100.00;100568.28;10518914;28;20043;-77
2023/12/23 22:33:35;;;;;;;4.32;2.20;;;;;;;8.22;100.00;100557.13;10526290;28;20038;-78
2023/12/23 22:38:35;;;;;;;9.98;3.15;;;;;;;8.30;100.00;100557.53;10484317;28;20036;-78
2023/12/23 22:43:36;;;;;;;7.07;3.10;;;;;;;8.36;100.00;100550.94;10487547;28;20135;-78
2023/12/23 22:48:36;;;;;;;6.38;2.20;;;;;;;8.40;100.00;100532.81;10518292;28;20064;-78
2023/12/23 22:53:37;;;;;;;2.95;1.35;;;;;;;8.43;100.00;100520.81;10502521;28;20185;-78
2023/12/23 22:58:38;;;;;;;6.18;2.17;;;;;;;8.46;100.00;100520.09;10515634;28;20538;-78
2023/12/23 23:03:38;;;;;;;6.80;3.58;;;;;;;8.50;100.00;100501.22;10495403;28;20135;-78